createdAt,value
2019-06-07T00:00:49.541Z,1011.68
2019-06-07T00:01:49.973Z,1011.70
2019-06-07T00:03:44.558Z,1011.64
2019-06-07T00:04:44.988Z,1011.64
2019-06-07T00:06:39.570Z,1011.63
2019-06-07T00:07:39.989Z,1011.60
2019-06-07T00:09:34.555Z,1011.61
2019-06-07T00:10:37.037Z,1011.62
2019-06-07T00:12:30.538Z,1011.59
2019-06-07T00:13:30.974Z,1011.55
2019-06-07T00:15:29.174Z,1011.57
2019-06-07T00:16:25.972Z,1011.63
2019-06-07T00:18:25.688Z,1011.58
2019-06-07T00:19:20.975Z,1011.60
2019-06-07T00:21:17.800Z,1011.58
2019-06-07T00:22:25.361Z,1011.60
2019-06-07T00:24:14.024Z,1011.57
2019-06-07T00:25:15.086Z,1011.55
2019-06-07T00:27:05.556Z,1011.54
2019-06-07T00:28:05.972Z,1011.58
2019-06-07T00:30:00.543Z,1011.53
2019-06-07T00:31:00.998Z,1011.56
2019-06-07T00:32:55.615Z,1011.57
2019-06-07T00:33:56.263Z,1011.60
2019-06-07T00:35:50.548Z,1011.57
2019-06-07T00:36:50.979Z,1011.57
2019-06-07T00:38:45.551Z,1011.52
2019-06-07T00:39:45.983Z,1011.58
2019-06-07T00:41:40.570Z,1011.57
2019-06-07T00:42:40.979Z,1011.54
2019-06-07T00:44:35.552Z,1011.54
2019-06-07T00:45:35.986Z,1011.59
2019-06-07T00:47:30.567Z,1011.52
2019-06-07T00:48:32.963Z,1011.56
2019-06-07T00:50:25.566Z,1011.52
2019-06-07T00:51:25.989Z,1011.59
2019-06-07T00:53:30.995Z,1011.54
2019-06-07T00:54:22.502Z,1011.48
2019-06-07T00:56:16.301Z,1011.50
2019-06-07T00:57:16.717Z,1011.49
2019-06-07T00:59:13.445Z,1011.50
2019-06-07T01:00:12.314Z,1011.53
2019-06-07T01:02:05.664Z,1011.53
2019-06-07T01:03:05.986Z,1011.52
2019-06-07T01:05:02.538Z,1011.53
2019-06-07T01:06:02.981Z,1011.52
2019-06-07T01:07:03.410Z,1011.55
2019-06-07T01:08:03.957Z,1011.58
2019-06-07T01:09:04.269Z,1011.59
2019-06-07T01:10:04.707Z,1011.59
2019-06-07T01:11:05.144Z,1011.66
2019-06-07T01:12:05.578Z,1011.65
2019-06-07T01:13:06.012Z,1011.62
2019-06-07T01:14:06.451Z,1011.60
2019-06-07T01:15:06.884Z,1011.61
2019-06-07T01:16:07.319Z,1011.62
2019-06-07T01:17:23.579Z,1011.56
2019-06-07T01:19:08.622Z,1011.53
2019-06-07T01:20:09.058Z,1011.51
2019-06-07T01:21:09.493Z,1011.52
2019-06-07T01:22:09.954Z,1011.52
2019-06-07T01:23:51.837Z,1011.53
2019-06-07T01:24:12.500Z,1011.51
2019-06-07T01:25:11.239Z,1011.51
2019-06-07T01:26:11.670Z,1011.53
2019-06-07T01:27:12.109Z,1011.57
2019-06-07T01:28:12.543Z,1011.65
2019-06-07T01:29:12.983Z,1011.66
2019-06-07T01:30:13.422Z,1011.65
2019-06-07T01:31:13.853Z,1011.61
2019-06-07T01:32:14.287Z,1011.58
2019-06-07T01:33:15.683Z,1011.61
2019-06-07T01:34:16.087Z,1011.59
2019-06-07T01:35:16.592Z,1011.56
2019-06-07T01:36:17.825Z,1011.51
2019-06-07T01:37:16.920Z,1011.46
2019-06-07T01:38:17.843Z,1011.44
2019-06-07T01:39:18.704Z,1011.41
2019-06-07T01:40:19.918Z,1011.41
2019-06-07T01:41:23.052Z,1011.39
2019-06-07T01:42:19.895Z,1011.40
2019-06-07T01:43:19.520Z,1011.47
2019-06-07T01:44:22.722Z,1011.47
2019-06-07T01:45:21.226Z,1011.58
2019-06-07T01:46:20.741Z,1011.65
2019-06-07T01:47:24.730Z,1011.68
2019-06-07T01:48:25.277Z,1011.68
2019-06-07T01:49:22.192Z,1011.72
2019-06-07T01:50:24.820Z,1011.67
2019-06-07T01:51:24.293Z,1011.63
2019-06-07T01:52:24.841Z,1011.62
2019-06-07T01:53:25.746Z,1011.58
2019-06-07T01:54:52.111Z,1011.55
2019-06-07T01:55:28.743Z,1011.55
2019-06-07T01:56:29.241Z,1011.56
2019-06-07T01:57:43.180Z,1011.58
2019-06-07T01:58:28.805Z,1011.57
2019-06-07T01:59:28.463Z,1011.53
2019-06-07T02:00:29.422Z,1011.53
2019-06-07T02:01:34.701Z,1011.53
2019-06-07T02:02:30.011Z,1011.53
2019-06-07T02:03:30.667Z,1011.49
2019-06-07T02:04:32.443Z,1011.48
2019-06-07T02:05:30.994Z,1011.48
2019-06-07T02:06:31.924Z,1011.49
2019-06-07T02:07:32.933Z,1011.47
2019-06-07T02:08:34.235Z,1011.53
2019-06-07T02:09:32.070Z,1011.59
2019-06-07T02:10:33.472Z,1011.63
2019-06-07T02:11:31.923Z,1011.63
2019-06-07T02:12:40.769Z,1011.67
2019-06-07T02:13:32.111Z,1011.67
2019-06-07T02:14:33.862Z,1011.70
2019-06-07T02:15:36.563Z,1011.68
2019-06-07T02:16:33.419Z,1011.72
2019-06-07T02:17:33.873Z,1011.75
2019-06-07T02:18:35.069Z,1011.75
2019-06-07T02:19:34.729Z,1011.81
2019-06-07T02:20:35.158Z,1011.85
2019-06-07T02:21:35.609Z,1011.85
2019-06-07T02:22:36.039Z,1011.83
2019-06-07T02:23:36.462Z,1011.83
2019-06-07T02:24:36.962Z,1011.86
2019-06-07T02:25:46.516Z,1011.82
2019-06-07T02:26:37.771Z,1011.86
2019-06-07T02:27:38.202Z,1011.87
2019-06-07T02:28:45.341Z,1011.85
2019-06-07T02:29:39.071Z,1011.86
2019-06-07T02:30:47.178Z,1011.92
2019-06-07T02:31:40.129Z,1011.89
2019-06-07T02:32:40.381Z,1011.92
2019-06-07T02:33:40.811Z,1011.88
2019-06-07T02:34:41.266Z,1011.87
2019-06-07T02:35:41.705Z,1011.86
2019-06-07T02:36:42.124Z,1011.86
2019-06-07T02:37:42.562Z,1011.81
2019-06-07T02:38:42.983Z,1011.80
2019-06-07T02:39:43.424Z,1011.81
2019-06-07T02:40:43.855Z,1011.78
2019-06-07T02:41:44.296Z,1011.73
2019-06-07T02:42:44.729Z,1011.71
2019-06-07T02:43:45.161Z,1011.74
2019-06-07T02:44:45.592Z,1011.73
2019-06-07T02:45:46.029Z,1011.78
2019-06-07T02:46:49.836Z,1011.80
2019-06-07T02:47:46.896Z,1011.75
2019-06-07T02:48:47.336Z,1011.77
2019-06-07T02:49:47.767Z,1011.77
2019-06-07T02:50:48.207Z,1011.76
2019-06-07T02:51:48.693Z,1011.70
2019-06-07T02:52:49.220Z,1011.77
2019-06-07T02:53:49.502Z,1011.80
2019-06-07T02:54:49.938Z,1011.79
2019-06-07T02:56:34.037Z,1011.80
2019-06-07T02:56:58.167Z,1011.83
2019-06-07T02:57:51.236Z,1011.84
2019-06-07T02:58:51.679Z,1011.84
2019-06-07T03:00:06.343Z,1011.82
2019-06-07T03:01:06.552Z,1011.84
2019-06-07T03:01:53.012Z,1011.80
2019-06-07T03:02:53.418Z,1011.80
2019-06-07T03:03:55.357Z,1011.79
2019-06-07T03:04:54.284Z,1011.81
2019-06-07T03:05:54.713Z,1011.79
2019-06-07T03:06:56.357Z,1011.76
2019-06-07T03:07:55.587Z,1011.79
2019-06-07T03:08:56.022Z,1011.76
2019-06-07T03:09:56.453Z,1011.82
2019-06-07T03:10:56.891Z,1011.86
2019-06-07T03:11:57.323Z,1011.88
2019-06-07T03:12:57.760Z,1011.95
2019-06-07T03:13:58.195Z,1012.00
2019-06-07T03:14:58.639Z,1012.07
2019-06-07T03:15:59.076Z,1012.07
2019-06-07T03:16:59.497Z,1012.08
2019-06-07T03:17:59.932Z,1012.07
2019-06-07T03:19:00.364Z,1012.06
2019-06-07T03:20:00.804Z,1012.11
2019-06-07T03:21:05.310Z,1012.11
2019-06-07T03:22:01.672Z,1012.19
2019-06-07T03:23:02.136Z,1012.24
2019-06-07T03:24:02.545Z,1012.24
2019-06-07T03:25:02.987Z,1012.21
2019-06-07T03:26:03.414Z,1012.18
2019-06-07T03:27:34.331Z,1012.13
2019-06-07T03:28:05.866Z,1012.12
2019-06-07T03:29:04.766Z,1012.19
2019-06-07T03:30:34.955Z,1012.16
2019-06-07T03:31:05.585Z,1012.13
2019-06-07T03:32:06.021Z,1012.08
2019-06-07T03:33:06.457Z,1012.14
2019-06-07T03:34:06.887Z,1012.09
2019-06-07T03:35:07.325Z,1012.13
2019-06-07T03:36:23.301Z,1012.13
2019-06-07T03:37:08.190Z,1012.14
2019-06-07T03:38:08.632Z,1012.14
2019-06-07T03:39:09.062Z,1012.10
2019-06-07T03:40:09.500Z,1012.12
2019-06-07T03:41:09.952Z,1012.09
2019-06-07T03:42:10.440Z,1012.07
2019-06-07T03:43:10.809Z,1012.07
2019-06-07T03:44:11.238Z,1012.08
2019-06-07T03:45:11.674Z,1012.10
2019-06-07T03:46:12.105Z,1012.15
2019-06-07T03:47:12.548Z,1012.16
2019-06-07T03:48:12.981Z,1012.16
2019-06-07T03:49:13.416Z,1012.20
2019-06-07T03:50:13.851Z,1012.24
2019-06-07T03:51:24.794Z,1012.22
2019-06-07T03:52:14.731Z,1012.21
2019-06-07T03:53:15.154Z,1012.29
2019-06-07T03:54:15.617Z,1012.30
2019-06-07T03:55:16.026Z,1012.32
2019-06-07T03:56:16.488Z,1012.39
2019-06-07T03:57:16.899Z,1012.33
2019-06-07T03:58:31.326Z,1012.37
2019-06-07T03:59:17.766Z,1012.36
2019-06-07T04:00:18.209Z,1012.37
2019-06-07T04:01:18.640Z,1012.41
2019-06-07T04:02:19.072Z,1012.41
2019-06-07T04:03:33.273Z,1012.41
2019-06-07T04:04:19.943Z,1012.41
2019-06-07T04:05:20.381Z,1012.42
2019-06-07T04:06:20.875Z,1012.39
2019-06-07T04:07:21.252Z,1012.41
2019-06-07T04:08:21.698Z,1012.40
2019-06-07T04:09:22.117Z,1012.38
2019-06-07T04:10:45.864Z,1012.38
2019-06-07T04:11:22.994Z,1012.37
2019-06-07T04:12:23.438Z,1012.33
2019-06-07T04:13:23.870Z,1012.34
2019-06-07T04:14:24.365Z,1012.39
2019-06-07T04:15:24.741Z,1012.42
2019-06-07T04:16:25.173Z,1012.44
2019-06-07T04:17:25.608Z,1012.44
2019-06-07T04:18:26.045Z,1012.43
2019-06-07T04:19:26.497Z,1012.39
2019-06-07T04:20:29.191Z,1012.37
2019-06-07T04:21:29.720Z,1012.37
2019-06-07T04:22:28.856Z,1012.45
2019-06-07T04:23:32.807Z,1012.46
2019-06-07T04:24:28.714Z,1012.44
2019-06-07T04:25:31.647Z,1012.49
2019-06-07T04:26:31.391Z,1012.47
2019-06-07T04:27:30.638Z,1012.47
2019-06-07T04:29:24.869Z,1012.48
2019-06-07T04:29:35.643Z,1012.45
2019-06-07T04:30:34.122Z,1012.48
2019-06-07T04:31:32.665Z,1012.43
2019-06-07T04:32:33.855Z,1012.47
2019-06-07T04:33:34.965Z,1012.47
2019-06-07T04:34:36.440Z,1012.49
2019-06-07T04:35:34.860Z,1012.47
2019-06-07T04:36:47.510Z,1012.48
2019-06-07T04:37:38.019Z,1012.47
2019-06-07T04:38:39.313Z,1012.43
2019-06-07T04:39:37.850Z,1012.42
2019-06-07T04:40:36.857Z,1012.41
2019-06-07T04:41:37.213Z,1012.44
2019-06-07T04:42:39.167Z,1012.43
2019-06-07T04:43:38.702Z,1012.41
2019-06-07T04:44:41.069Z,1012.44
2019-06-07T04:45:46.263Z,1012.39
2019-06-07T04:46:40.767Z,1012.42
2019-06-07T04:47:42.067Z,1012.44
2019-06-07T04:48:43.270Z,1012.44
2019-06-07T04:51:12.732Z,1012.38
2019-06-07T04:52:13.144Z,1012.33
2019-06-07T04:54:07.709Z,1012.31
2019-06-07T04:55:08.215Z,1012.29
2019-06-07T04:57:08.776Z,1012.29
2019-06-07T04:58:09.192Z,1012.33
2019-06-07T05:00:46.681Z,1012.25
2019-06-07T05:01:26.325Z,1012.27
2019-06-07T05:03:03.063Z,1012.28
2019-06-07T05:04:03.534Z,1012.31
2019-06-07T05:05:58.054Z,1012.35
2019-06-07T05:06:58.498Z,1012.36
2019-06-07T05:08:53.064Z,1012.35
2019-06-07T05:09:53.502Z,1012.38
2019-06-07T05:11:48.055Z,1012.34
2019-06-07T05:12:48.491Z,1012.36
2019-06-07T05:14:44.403Z,1012.37
2019-06-07T05:15:44.474Z,1012.38
2019-06-07T05:17:44.797Z,1012.39
2019-06-07T05:18:43.086Z,1012.41
2019-06-07T05:20:36.155Z,1012.40
2019-06-07T05:21:54.192Z,1012.46
2019-06-07T05:24:06.681Z,1012.47
2019-06-07T05:24:36.517Z,1012.46
2019-06-07T05:26:26.051Z,1012.41
2019-06-07T05:27:26.493Z,1012.45
2019-06-07T05:29:21.068Z,1012.46
2019-06-07T05:30:59.813Z,1012.41
2019-06-07T05:32:17.057Z,1012.45
2019-06-07T05:33:17.507Z,1012.38
2019-06-07T05:35:13.151Z,1012.47
2019-06-07T05:36:13.487Z,1012.44
2019-06-07T05:38:08.107Z,1012.44
2019-06-07T05:40:48.091Z,1012.49
2019-06-07T05:41:44.423Z,1012.49
2019-06-07T05:43:41.086Z,1012.43
2019-06-07T05:44:39.952Z,1012.41
2019-06-07T05:46:37.878Z,1012.42
2019-06-07T05:47:39.978Z,1012.47
2019-06-07T05:49:29.628Z,1012.43
2019-06-07T05:50:43.674Z,1012.46
2019-06-07T05:52:25.613Z,1012.40
2019-06-07T05:53:26.054Z,1012.45
2019-06-07T05:55:20.634Z,1012.41
2019-06-07T05:56:21.065Z,1012.41
2019-06-07T05:58:16.640Z,1012.40
2019-06-07T05:59:17.054Z,1012.33
2019-06-07T06:01:42.131Z,1012.38
2019-06-07T06:02:22.268Z,1012.41
2019-06-07T06:04:06.656Z,1012.42
2019-06-07T06:05:07.127Z,1012.44
2019-06-07T06:07:01.692Z,1012.40
2019-06-07T06:08:02.110Z,1012.40
2019-06-07T06:09:56.696Z,1012.41
2019-06-07T06:10:57.157Z,1012.47
2019-06-07T06:12:52.213Z,1012.46
2019-06-07T06:14:06.744Z,1012.43
2019-06-07T06:16:02.505Z,1012.38
2019-06-07T06:17:02.002Z,1012.36
2019-06-07T06:18:56.594Z,1012.39
2019-06-07T06:19:57.030Z,1012.37
2019-06-07T06:21:51.654Z,1012.38
2019-06-07T06:22:52.084Z,1012.44
2019-06-07T06:25:22.539Z,1012.39
2019-06-07T06:25:56.273Z,1012.42
2019-06-07T06:28:05.900Z,1012.45
2019-06-07T06:28:45.267Z,1012.47
2019-06-07T06:30:41.028Z,1012.44
2019-06-07T06:31:48.467Z,1012.46
2019-06-07T06:33:34.981Z,1012.50
2019-06-07T06:34:34.222Z,1012.50
2019-06-07T06:36:29.779Z,1012.52
2019-06-07T06:37:30.229Z,1012.49
2019-06-07T06:39:24.833Z,1012.46
2019-06-07T06:40:25.274Z,1012.43
2019-06-07T06:42:19.872Z,1012.46
2019-06-07T06:43:20.328Z,1012.46
2019-06-07T06:45:14.943Z,1012.49
2019-06-07T06:46:31.806Z,1012.48
2019-06-07T06:48:10.961Z,1012.44
2019-06-07T06:49:11.415Z,1012.43
2019-06-07T06:51:06.033Z,1012.40
2019-06-07T06:52:06.471Z,1012.44
2019-06-07T06:54:01.081Z,1012.43
2019-06-07T06:55:01.567Z,1012.46
2019-06-07T06:57:17.959Z,1012.42
2019-06-07T06:57:56.586Z,1012.43
2019-06-07T06:59:52.833Z,1012.39
2019-06-07T07:01:05.312Z,1012.40
2019-06-07T07:03:40.680Z,1012.37
2019-06-07T07:04:09.173Z,1012.36
2019-06-07T07:05:43.423Z,1012.32
2019-06-07T07:08:19.215Z,1012.33
2019-06-07T07:10:54.913Z,1012.34
2019-06-07T07:12:10.212Z,1012.32
2019-06-07T07:13:51.721Z,1012.33
2019-06-07T07:14:50.274Z,1012.36
2019-06-07T07:16:45.788Z,1012.33
2019-06-07T07:17:54.836Z,1012.28
2019-06-07T07:19:38.026Z,1012.29
2019-06-07T07:20:38.542Z,1012.26
2019-06-07T07:22:33.096Z,1012.26
2019-06-07T07:23:33.559Z,1012.30
2019-06-07T07:25:29.158Z,1012.30
2019-06-07T07:26:29.626Z,1012.28
2019-06-07T07:28:28.718Z,1012.33
2019-06-07T07:29:29.196Z,1012.31
2019-06-07T07:31:23.798Z,1012.30
2019-06-07T07:32:24.257Z,1012.30
2019-06-07T07:34:33.763Z,1012.33
2019-06-07T07:35:19.332Z,1012.30
2019-06-07T07:37:13.948Z,1012.35
2019-06-07T07:38:14.412Z,1012.34
2019-06-07T07:40:55.432Z,1012.36
2019-06-07T07:41:15.609Z,1012.34
2019-06-07T07:43:05.091Z,1012.38
2019-06-07T07:44:07.586Z,1012.36
2019-06-07T07:46:03.468Z,1012.33
2019-06-07T07:47:00.635Z,1012.27
2019-06-07T07:48:56.196Z,1012.34
2019-06-07T07:49:58.623Z,1012.36
2019-06-07T07:52:15.529Z,1012.40
2019-06-07T07:53:16.013Z,1012.34
2019-06-07T07:54:16.454Z,1012.33
2019-06-07T07:55:16.965Z,1012.32
2019-06-07T07:56:17.385Z,1012.30
2019-06-07T07:57:17.857Z,1012.25
2019-06-07T07:58:18.348Z,1012.27
2019-06-07T07:59:18.773Z,1012.28
2019-06-07T08:00:50.017Z,1012.25
2019-06-07T08:01:19.706Z,1012.17
2019-06-07T08:02:20.169Z,1012.17
2019-06-07T08:03:20.838Z,1012.18
2019-06-07T08:04:29.426Z,1012.18
2019-06-07T08:05:29.057Z,1012.22
2019-06-07T08:06:22.034Z,1012.24
2019-06-07T08:07:22.498Z,1012.25
2019-06-07T08:08:22.963Z,1012.18
2019-06-07T08:09:23.440Z,1012.18
2019-06-07T08:10:23.904Z,1012.22
2019-06-07T08:11:24.367Z,1012.25
2019-06-07T08:12:24.836Z,1012.27
2019-06-07T08:13:27.302Z,1012.26
2019-06-07T08:14:25.769Z,1012.28
2019-06-07T08:15:26.241Z,1012.29
2019-06-07T08:16:26.696Z,1012.22
2019-06-07T08:17:27.172Z,1012.23
2019-06-07T08:18:27.689Z,1012.23
2019-06-07T08:19:28.102Z,1012.22
2019-06-07T08:20:28.566Z,1012.27
2019-06-07T08:21:29.064Z,1012.30
2019-06-07T08:22:29.503Z,1012.30
2019-06-07T08:23:30.101Z,1012.31
2019-06-07T08:24:30.443Z,1012.28
2019-06-07T08:25:30.909Z,1012.35
2019-06-07T08:26:31.588Z,1012.36
2019-06-07T08:27:31.836Z,1012.38
2019-06-07T08:28:32.321Z,1012.36
2019-06-07T08:29:44.380Z,1012.36
2019-06-07T08:30:55.027Z,1012.36
2019-06-07T08:31:33.702Z,1012.37
2019-06-07T08:32:34.183Z,1012.34
2019-06-07T08:33:34.636Z,1012.33
2019-06-07T08:34:35.117Z,1012.33
2019-06-07T08:36:42.137Z,1012.31
2019-06-07T08:38:14.226Z,1012.32
2019-06-07T08:38:47.584Z,1012.33
2019-06-07T08:39:37.450Z,1012.36
2019-06-07T08:40:37.980Z,1012.35
2019-06-07T08:41:53.479Z,1012.38
2019-06-07T08:42:59.473Z,1012.36
2019-06-07T08:43:39.316Z,1012.28
2019-06-07T08:44:39.780Z,1012.30
2019-06-07T08:45:40.247Z,1012.30
2019-06-07T08:46:40.715Z,1012.33
2019-06-07T08:47:41.190Z,1012.34
2019-06-07T08:48:41.656Z,1012.37
2019-06-07T08:49:42.119Z,1012.35
2019-06-07T08:50:42.658Z,1012.35
2019-06-07T08:51:43.061Z,1012.36
2019-06-07T08:52:43.524Z,1012.34
2019-06-07T08:54:02.457Z,1012.32
2019-06-07T08:54:44.464Z,1012.33
2019-06-07T08:55:44.936Z,1012.31
2019-06-07T08:56:45.401Z,1012.29
2019-06-07T08:57:45.864Z,1012.28
2019-06-07T08:58:46.336Z,1012.28
2019-06-07T08:59:46.805Z,1012.28
2019-06-07T09:00:48.021Z,1012.29
2019-06-07T09:01:47.739Z,1012.24
2019-06-07T09:02:48.214Z,1012.27
2019-06-07T09:03:48.682Z,1012.29
2019-06-07T09:04:49.147Z,1012.29
2019-06-07T09:05:49.619Z,1012.30
2019-06-07T09:07:19.755Z,1012.31
2019-06-07T09:08:13.348Z,1012.28
2019-06-07T09:08:51.975Z,1012.27
2019-06-07T09:09:59.772Z,1012.33
2019-06-07T09:10:54.042Z,1012.29
2019-06-07T09:11:52.673Z,1012.29
2019-06-07T09:12:54.422Z,1012.32
2019-06-07T09:13:55.497Z,1012.28
2019-06-07T09:15:06.245Z,1012.31
2019-06-07T09:15:55.966Z,1012.28
2019-06-07T09:17:00.432Z,1012.29
2019-06-07T09:18:34.833Z,1012.25
2019-06-07T09:18:58.492Z,1012.27
2019-06-07T09:19:58.191Z,1012.25
2019-06-07T09:20:58.185Z,1012.23
2019-06-07T09:22:01.579Z,1012.21
2019-06-07T09:23:06.189Z,1012.23
2019-06-07T09:24:02.959Z,1012.24
2019-06-07T09:25:05.915Z,1012.21
2019-06-07T09:26:07.930Z,1012.22
2019-06-07T09:27:02.396Z,1012.17
2019-06-07T09:28:08.019Z,1012.21
2019-06-07T09:29:01.370Z,1012.17
2019-06-07T09:30:04.626Z,1012.21
2019-06-07T09:31:07.833Z,1012.19
2019-06-07T09:32:05.810Z,1012.11
2019-06-07T09:33:05.377Z,1012.08
2019-06-07T09:34:07.968Z,1012.09
2019-06-07T09:35:10.634Z,1012.04
2019-06-07T09:36:07.938Z,1012.05
2019-06-07T09:37:54.798Z,1012.09
2019-06-07T09:38:22.536Z,1012.07
2019-06-07T09:39:08.281Z,1012.11
2019-06-07T09:40:20.457Z,1012.11
2019-06-07T09:41:07.459Z,1012.10
2019-06-07T09:42:10.063Z,1012.11
2019-06-07T09:43:55.355Z,1012.09
2019-06-07T09:44:23.251Z,1012.08
2019-06-07T09:45:11.679Z,1012.11
2019-06-07T09:46:12.995Z,1012.01
2019-06-07T09:47:30.256Z,1011.98
2019-06-07T09:48:14.629Z,1011.97
2019-06-07T09:49:18.319Z,1012.01
2019-06-07T09:50:12.344Z,1012.02
2019-06-07T09:51:19.237Z,1012.01
2019-06-07T09:52:11.191Z,1012.06
2019-06-07T09:53:21.909Z,1012.06
2019-06-07T09:55:02.347Z,1012.06
2019-06-07T09:55:23.788Z,1012.09
2019-06-07T09:56:12.638Z,1012.12
2019-06-07T09:57:17.285Z,1012.09
2019-06-07T09:59:14.053Z,1012.03
2019-06-07T10:00:39.129Z,1012.07
2019-06-07T10:01:15.006Z,1012.02
2019-06-07T10:02:15.462Z,1012.04
2019-06-07T10:03:21.372Z,1012.06
2019-06-07T10:04:28.542Z,1012.09
2019-06-07T10:05:16.884Z,1012.14
2019-06-07T10:06:17.350Z,1012.14
2019-06-07T10:07:31.236Z,1012.15
2019-06-07T10:09:26.279Z,1012.11
2019-06-07T10:11:19.716Z,1012.06
2019-06-07T10:12:20.195Z,1012.09
2019-06-07T10:13:20.660Z,1012.07
2019-06-07T10:14:21.182Z,1012.04
2019-06-07T10:15:21.608Z,1012.01
2019-06-07T10:16:22.116Z,1012.02
2019-06-07T10:17:22.565Z,1011.99
2019-06-07T10:18:23.031Z,1011.98
2019-06-07T10:19:23.531Z,1011.97
2019-06-07T10:20:23.978Z,1011.97
2019-06-07T10:21:24.441Z,1011.95
2019-06-07T10:22:24.936Z,1011.94
2019-06-07T10:23:25.384Z,1011.95
2019-06-07T10:24:25.860Z,1011.94
2019-06-07T10:25:26.327Z,1011.93
2019-06-07T10:26:26.812Z,1011.93
2019-06-07T10:27:27.277Z,1011.87
2019-06-07T10:28:27.745Z,1011.94
2019-06-07T10:29:28.215Z,1011.87
2019-06-07T10:30:28.688Z,1011.93
2019-06-07T10:31:29.159Z,1011.97
2019-06-07T10:32:29.633Z,1011.88
2019-06-07T10:33:30.112Z,1011.98
2019-06-07T10:34:30.578Z,1011.92
2019-06-07T10:35:31.123Z,1011.94
2019-06-07T10:36:31.525Z,1011.94
2019-06-07T10:37:31.984Z,1011.92
2019-06-07T10:38:32.465Z,1011.90
2019-06-07T10:39:47.674Z,1011.90
2019-06-07T10:40:33.430Z,1011.89
2019-06-07T10:41:33.866Z,1011.90
2019-06-07T10:42:34.353Z,1011.86
2019-06-07T10:43:34.815Z,1011.81
2019-06-07T10:44:35.286Z,1011.80
2019-06-07T10:45:35.758Z,1011.80
2019-06-07T10:46:36.228Z,1011.82
2019-06-07T10:47:36.709Z,1011.83
2019-06-07T10:48:37.170Z,1011.77
2019-06-07T10:49:37.647Z,1011.79
2019-06-07T10:50:38.116Z,1011.77
2019-06-07T10:51:38.595Z,1011.76
2019-06-07T10:52:39.059Z,1011.74
2019-06-07T10:53:39.530Z,1011.75
2019-06-07T10:54:39.999Z,1011.73
2019-06-07T10:55:40.473Z,1011.74
2019-06-07T10:56:40.948Z,1011.80
2019-06-07T10:57:41.424Z,1011.75
2019-06-07T10:58:41.879Z,1011.73
2019-06-07T10:59:42.367Z,1011.72
2019-06-07T11:00:42.835Z,1011.68
2019-06-07T11:01:43.316Z,1011.64
2019-06-07T11:02:43.780Z,1011.65
2019-06-07T11:03:44.247Z,1011.71
2019-06-07T11:04:44.738Z,1011.69
2019-06-07T11:05:45.190Z,1011.65
2019-06-07T11:06:45.667Z,1011.66
2019-06-07T11:07:46.143Z,1011.66
2019-06-07T11:08:46.613Z,1011.69
2019-06-07T11:09:47.081Z,1011.70
2019-06-07T11:10:47.555Z,1011.75
2019-06-07T11:11:48.031Z,1011.73
2019-06-07T11:12:48.493Z,1011.75
2019-06-07T11:13:52.264Z,1011.69
2019-06-07T11:14:49.429Z,1011.67
2019-06-07T11:15:49.903Z,1011.67
2019-06-07T11:16:50.370Z,1011.69
2019-06-07T11:17:50.838Z,1011.67
2019-06-07T11:18:51.302Z,1011.64
2019-06-07T11:19:51.778Z,1011.66
2019-06-07T11:20:52.284Z,1011.67
2019-06-07T11:21:52.726Z,1011.64
2019-06-07T11:22:53.178Z,1011.59
2019-06-07T11:23:53.646Z,1011.56
2019-06-07T11:24:54.111Z,1011.59
2019-06-07T11:25:54.590Z,1011.65
2019-06-07T11:26:55.049Z,1011.65
2019-06-07T11:27:55.522Z,1011.62
2019-06-07T11:28:55.985Z,1011.62
2019-06-07T11:29:56.461Z,1011.64
2019-06-07T11:30:56.927Z,1011.63
2019-06-07T11:31:57.396Z,1011.55
2019-06-07T11:32:57.862Z,1011.58
2019-06-07T11:33:58.339Z,1011.58
2019-06-07T11:34:58.801Z,1011.51
2019-06-07T11:35:59.271Z,1011.55
2019-06-07T11:36:59.736Z,1011.55
2019-06-07T11:38:00.206Z,1011.56
2019-06-07T11:39:00.663Z,1011.50
2019-06-07T11:40:01.137Z,1011.48
2019-06-07T11:41:01.589Z,1011.57
2019-06-07T11:42:02.053Z,1011.58
2019-06-07T11:43:02.513Z,1011.59
2019-06-07T11:44:02.973Z,1011.60
2019-06-07T11:45:03.438Z,1011.52
2019-06-07T11:46:03.883Z,1011.55
2019-06-07T11:47:04.349Z,1011.56
2019-06-07T11:48:04.800Z,1011.56
2019-06-07T11:49:06.336Z,1011.48
2019-06-07T11:50:05.714Z,1011.48
2019-06-07T11:51:06.709Z,1011.46
2019-06-07T11:52:07.344Z,1011.37
2019-06-07T11:53:08.518Z,1011.36
2019-06-07T11:54:07.847Z,1011.43
2019-06-07T11:55:09.034Z,1011.40
2019-06-07T11:56:10.218Z,1011.35
2019-06-07T11:57:08.906Z,1011.39
2019-06-07T11:58:13.420Z,1011.41
2019-06-07T11:59:11.086Z,1011.41
2019-06-07T12:00:11.516Z,1011.36
2019-06-07T12:01:11.861Z,1011.41
2019-06-07T12:02:11.442Z,1011.37
2019-06-07T12:03:11.671Z,1011.34
2019-06-07T12:04:12.036Z,1011.38
2019-06-07T12:05:16.169Z,1011.34
2019-06-07T12:06:14.581Z,1011.30
2019-06-07T12:07:14.171Z,1011.34
2019-06-07T12:08:14.053Z,1011.36
2019-06-07T12:09:14.481Z,1011.35
2019-06-07T12:10:18.152Z,1011.34
2019-06-07T12:11:16.393Z,1011.33
2019-06-07T12:12:16.603Z,1011.37
2019-06-07T12:13:17.404Z,1011.35
2019-06-07T12:14:16.827Z,1011.29
2019-06-07T12:15:17.393Z,1011.30
2019-06-07T12:16:17.514Z,1011.29
2019-06-07T12:17:17.860Z,1011.21
2019-06-07T12:18:19.682Z,1011.21
2019-06-07T12:19:19.767Z,1011.17
2019-06-07T12:20:20.983Z,1011.16
2019-06-07T12:21:19.965Z,1011.12
2019-06-07T12:22:20.184Z,1011.11
2019-06-07T12:23:20.542Z,1011.15
2019-06-07T12:24:21.227Z,1011.14
2019-06-07T12:25:24.780Z,1011.18
2019-06-07T12:26:21.884Z,1011.16
2019-06-07T12:27:22.337Z,1011.12
2019-06-07T12:28:22.836Z,1011.13
2019-06-07T12:30:56.366Z,1011.11
2019-06-07T12:31:56.802Z,1011.08
2019-06-07T12:33:51.609Z,1011.13
2019-06-07T12:34:51.864Z,1011.06
2019-06-07T12:36:46.412Z,1011.10
2019-06-07T12:37:46.932Z,1011.03
2019-06-07T12:39:41.786Z,1010.98
2019-06-07T12:42:16.233Z,1010.92
2019-06-07T12:43:16.736Z,1010.91
2019-06-07T12:45:10.082Z,1010.91
2019-06-07T12:46:14.504Z,1010.93
2019-06-07T12:48:05.173Z,1010.91
2019-06-07T12:49:05.558Z,1010.88
2019-06-07T12:51:01.125Z,1010.83
2019-06-07T12:52:01.562Z,1010.93
2019-06-07T12:53:56.187Z,1010.89
2019-06-07T12:54:56.584Z,1010.87
2019-06-07T12:57:07.771Z,1010.83
2019-06-07T12:58:08.219Z,1010.78
2019-06-07T13:00:02.985Z,1010.77
2019-06-07T13:01:03.275Z,1010.78
2019-06-07T13:02:57.852Z,1010.82
2019-06-07T13:03:58.300Z,1010.79
2019-06-07T13:05:52.906Z,1010.81
2019-06-07T13:06:53.332Z,1010.70
2019-06-07T13:08:47.914Z,1010.71
2019-06-07T13:09:48.359Z,1010.68
2019-06-07T13:11:42.952Z,1010.61
2019-06-07T13:12:44.187Z,1010.62
2019-06-07T13:14:37.981Z,1010.65
2019-06-07T13:15:38.414Z,1010.67
2019-06-07T13:17:33.039Z,1010.67
2019-06-07T13:18:33.467Z,1010.62
2019-06-07T13:20:28.864Z,1010.64
2019-06-07T13:21:28.719Z,1010.65
2019-06-07T13:23:24.347Z,1010.60
2019-06-07T13:24:25.195Z,1010.57
2019-06-07T13:26:20.505Z,1010.51
2019-06-07T13:27:20.381Z,1010.50
2019-06-07T13:29:14.149Z,1010.46
2019-06-07T13:30:14.591Z,1010.43
2019-06-07T13:32:10.165Z,1010.37
2019-06-07T13:33:10.641Z,1010.37
2019-06-07T13:35:06.194Z,1010.33
2019-06-07T13:36:06.634Z,1010.33
2019-06-07T13:38:01.219Z,1010.36
2019-06-07T13:39:01.663Z,1010.36
2019-06-07T13:40:56.260Z,1010.27
2019-06-07T13:41:56.696Z,1010.32
2019-06-07T13:43:52.266Z,1010.22
2019-06-07T13:44:52.704Z,1010.20
2019-06-07T13:46:47.302Z,1010.18
2019-06-07T13:47:47.739Z,1010.13
2019-06-07T13:49:43.332Z,1010.15
2019-06-07T13:50:43.753Z,1010.12
2019-06-07T13:52:39.928Z,1010.06
2019-06-07T13:53:38.780Z,1010.07
2019-06-07T13:55:33.381Z,1010.07
2019-06-07T13:56:33.826Z,1010.11
2019-06-07T13:58:28.771Z,1010.06
2019-06-07T13:59:28.886Z,1010.01
2019-06-07T14:01:24.743Z,1010.03
2019-06-07T14:02:26.105Z,1010.06
2019-06-07T14:04:20.924Z,1010.02
2019-06-07T14:05:21.044Z,1010.02
2019-06-07T14:07:15.522Z,1010.02
2019-06-07T14:08:15.962Z,1009.98
2019-06-07T14:10:11.940Z,1009.92